sensor_id;sensor_type;location;lat;lon;timestamp;pressure;altitude;pressure_sealevel;temperature;humidity
46211;BME280;52144;48.040;-1.594;2024-01-15T00:02:15;100728.13;;;7.75;78.34
46211;BME280;52144;48.040;-1.594;2024-01-15T00:04:43;100722.00;;;7.73;78.35
46211;BME280;52144;48.040;-1.594;2024-01-15T00:07:11;100716.66;;;7.75;80.30
46211;BME280;52144;48.040;-1.594;2024-01-15T00:09:39;100712.53;;;7.91;79.59
46211;BME280;52144;48.040;-1.594;2024-01-15T00:12:07;100700.09;;;7.93;79.38
46211;BME280;52144;48.040;-1.594;2024-01-15T00:14:35;100693.97;;;7.91;78.57
46211;BME280;52144;48.040;-1.594;2024-01-15T00:17:04;100692.25;;;7.90;78.53
46211;BME280;52144;48.040;-1.594;2024-01-15T00:19:32;100688.56;;;7.94;80.12
46211;BME280;52144;48.040;-1.594;2024-01-15T00:22:00;100684.75;;;8.01;82.09
46211;BME280;52144;48.040;-1.594;2024-01-15T00:24:28;100689.25;;;8.24;81.85
46211;BME280;52144;48.040;-1.594;2024-01-15T00:26:55;100692.41;;;8.11;78.95
46211;BME280;52144;48.040;-1.594;2024-01-15T00:29:23;100685.56;;;8.03;79.86
46211;BME280;52144;48.040;-1.594;2024-01-15T00:31:51;100693.66;;;8.00;79.50
46211;BME280;52144;48.040;-1.594;2024-01-15T00:34:20;100692.56;;;7.81;77.07
46211;BME280;52144;48.040;-1.594;2024-01-15T00:36:48;100697.09;;;7.52;76.82
46211;BME280;52144;48.040;-1.594;2024-01-15T00:39:16;100691.16;;;7.44;77.86
46211;BME280;52144;48.040;-1.594;2024-01-15T00:41:44;100693.53;;;7.53;79.29
46211;BME280;52144;48.040;-1.594;2024-01-15T00:44:12;100695.19;;;7.56;81.71
46211;BME280;52144;48.040;-1.594;2024-01-15T00:46:43;100694.56;;;7.74;80.08
46211;BME280;52144;48.040;-1.594;2024-01-15T00:49:11;100687.16;;;7.84;79.83
46211;BME280;52144;48.040;-1.594;2024-01-15T00:51:41;100693.97;;;7.91;79.49
46211;BME280;52144;48.040;-1.594;2024-01-15T00:54:09;100681.13;;;7.79;80.09
46211;BME280;52144;48.040;-1.594;2024-01-15T00:56:37;100680.72;;;7.91;80.71
46211;BME280;52144;48.040;-1.594;2024-01-15T00:59:05;100682.31;;;7.95;80.76
46211;BME280;52144;48.040;-1.594;2024-01-15T01:01:32;100687.09;;;8.11;81.31
46211;BME280;52144;48.040;-1.594;2024-01-15T01:04:00;100685.34;;;8.10;82.11
46211;BME280;52144;48.040;-1.594;2024-01-15T01:06:28;100679.47;;;8.01;80.94
46211;BME280;52144;48.040;-1.594;2024-01-15T01:09:01;100683.34;;;7.91;80.59
46211;BME280;52144;48.040;-1.594;2024-01-15T01:11:28;100675.66;;;7.83;80.92
46211;BME280;52144;48.040;-1.594;2024-01-15T01:13:56;100681.56;;;7.67;79.20
46211;BME280;52144;48.040;-1.594;2024-01-15T01:16:24;100673.22;;;7.52;80.14
46211;BME280;52144;48.040;-1.594;2024-01-15T01:18:52;100667.81;;;7.55;79.88
46211;BME280;52144;48.040;-1.594;2024-01-15T01:21:20;100659.66;;;7.61;79.56
46211;BME280;52144;48.040;-1.594;2024-01-15T01:23:48;100651.56;;;7.64;80.74
46211;BME280;52144;48.040;-1.594;2024-01-15T01:26:17;100652.00;;;7.77;81.33
46211;BME280;52144;48.040;-1.594;2024-01-15T01:28:45;100646.41;;;7.61;81.98
46211;BME280;52144;48.040;-1.594;2024-01-15T01:31:13;100647.47;;;7.81;82.71
46211;BME280;52144;48.040;-1.594;2024-01-15T01:33:43;100644.59;;;7.87;82.79
46211;BME280;52144;48.040;-1.594;2024-01-15T01:36:11;100638.38;;;7.88;83.99
46211;BME280;52144;48.040;-1.594;2024-01-15T01:38:39;100629.63;;;7.86;82.08
46211;BME280;52144;48.040;-1.594;2024-01-15T01:41:07;100628.53;;;7.92;83.13
46211;BME280;52144;48.040;-1.594;2024-01-15T01:43:37;100633.16;;;8.10;82.88
46211;BME280;52144;48.040;-1.594;2024-01-15T01:46:05;100628.94;;;8.04;83.28
46211;BME280;52144;48.040;-1.594;2024-01-15T01:48:34;100627.91;;;7.83;81.65
46211;BME280;52144;48.040;-1.594;2024-01-15T01:51:03;100629.84;;;7.80;81.49
46211;BME280;52144;48.040;-1.594;2024-01-15T01:53:32;100628.31;;;7.73;80.62
46211;BME280;52144;48.040;-1.594;2024-01-15T01:56:02;100628.75;;;7.60;80.06
46211;BME280;52144;48.040;-1.594;2024-01-15T01:58:31;100621.22;;;7.48;80.48
46211;BME280;52144;48.040;-1.594;2024-01-15T02:01:01;100614.78;;;7.55;79.72
46211;BME280;52144;48.040;-1.594;2024-01-15T02:03:30;100627.13;;;7.56;81.58
46211;BME280;52144;48.040;-1.594;2024-01-15T02:05:59;100622.19;;;7.71;81.78
46211;BME280;52144;48.040;-1.594;2024-01-15T02:08:27;100621.97;;;7.77;80.56
46211;BME280;52144;48.040;-1.594;2024-01-15T02:10:54;100620.97;;;7.79;82.01
46211;BME280;52144;48.040;-1.594;2024-01-15T02:13:22;100620.63;;;7.90;81.28
46211;BME280;52144;48.040;-1.594;2024-01-15T02:15:50;100624.44;;;7.81;82.27
46211;BME280;52144;48.040;-1.594;2024-01-15T02:18:19;100636.53;;;7.90;82.20
46211;BME280;52144;48.040;-1.594;2024-01-15T02:20:47;100637.63;;;7.84;81.44
46211;BME280;52144;48.040;-1.594;2024-01-15T02:23:16;100639.31;;;7.62;83.96
46211;BME280;52144;48.040;-1.594;2024-01-15T02:25:46;100629.72;;;7.83;84.47
46211;BME280;52144;48.040;-1.594;2024-01-15T02:28:14;100615.94;;;7.97;85.27
46211;BME280;52144;48.040;-1.594;2024-01-15T02:30:43;100620.41;;;7.96;82.38
46211;BME280;52144;48.040;-1.594;2024-01-15T02:33:12;100624.91;;;7.94;81.64
46211;BME280;52144;48.040;-1.594;2024-01-15T02:35:40;100629.47;;;7.89;80.93
46211;BME280;52144;48.040;-1.594;2024-01-15T02:38:08;100626.94;;;7.61;81.51
46211;BME280;52144;48.040;-1.594;2024-01-15T02:40:38;100631.56;;;7.56;79.69
46211;BME280;52144;48.040;-1.594;2024-01-15T02:43:06;100637.38;;;7.40;81.46
46211;BME280;52144;48.040;-1.594;2024-01-15T02:45:33;100633.44;;;7.52;82.53
46211;BME280;52144;48.040;-1.594;2024-01-15T02:48:01;100627.88;;;7.60;82.15
46211;BME280;52144;48.040;-1.594;2024-01-15T02:50:29;100634.53;;;7.72;81.48
46211;BME280;52144;48.040;-1.594;2024-01-15T02:52:57;100625.69;;;7.71;81.96
46211;BME280;52144;48.040;-1.594;2024-01-15T02:55:25;100622.91;;;7.76;82.49
46211;BME280;52144;48.040;-1.594;2024-01-15T02:57:57;100633.59;;;7.73;82.59
46211;BME280;52144;48.040;-1.594;2024-01-15T03:00:26;100629.97;;;7.75;81.99
46211;BME280;52144;48.040;-1.594;2024-01-15T03:02:54;100631.47;;;7.84;83.63
46211;BME280;52144;48.040;-1.594;2024-01-15T03:05:22;100632.31;;;7.59;84.76
46211;BME280;52144;48.040;-1.594;2024-01-15T03:07:50;100634.97;;;7.84;84.48
46211;BME280;52144;48.040;-1.594;2024-01-15T03:10:18;100638.69;;;7.79;83.80
46211;BME280;52144;48.040;-1.594;2024-01-15T03:12:46;100638.16;;;7.69;83.02
46211;BME280;52144;48.040;-1.594;2024-01-15T03:15:15;100629.72;;;7.58;84.65
46211;BME280;52144;48.040;-1.594;2024-01-15T03:17:43;100628.66;;;7.63;83.50
46211;BME280;52144;48.040;-1.594;2024-01-15T03:20:11;100627.03;;;7.59;81.61
46211;BME280;52144;48.040;-1.594;2024-01-15T03:22:39;100627.25;;;7.53;82.07
46211;BME280;52144;48.040;-1.594;2024-01-15T03:25:07;100623.34;;;7.63;82.74
46211;BME280;52144;48.040;-1.594;2024-01-15T03:27:35;100616.78;;;7.74;83.08
46211;BME280;52144;48.040;-1.594;2024-01-15T03:30:03;100619.22;;;7.80;82.68
46211;BME280;52144;48.040;-1.594;2024-01-15T03:32:33;100620.72;;;7.87;81.80
46211;BME280;52144;48.040;-1.594;2024-01-15T03:35:01;100609.25;;;7.87;81.90
46211;BME280;52144;48.040;-1.594;2024-01-15T03:37:28;100614.47;;;7.90;82.82
46211;BME280;52144;48.040;-1.594;2024-01-15T03:39:56;100612.63;;;7.92;81.80
46211;BME280;52144;48.040;-1.594;2024-01-15T03:42:24;100615.31;;;7.90;81.41
46211;BME280;52144;48.040;-1.594;2024-01-15T03:44:52;100613.13;;;8.01;82.68
46211;BME280;52144;48.040;-1.594;2024-01-15T03:47:20;100611.03;;;8.10;82.40
46211;BME280;52144;48.040;-1.594;2024-01-15T03:49:49;100609.84;;;8.18;82.64
46211;BME280;52144;48.040;-1.594;2024-01-15T03:52:17;100614.97;;;8.23;82.94
46211;BME280;52144;48.040;-1.594;2024-01-15T03:54:44;100602.63;;;8.22;81.87
46211;BME280;52144;48.040;-1.594;2024-01-15T03:57:12;100607.13;;;8.20;80.24
46211;BME280;52144;48.040;-1.594;2024-01-15T03:59:40;100602.59;;;8.00;78.91
46211;BME280;52144;48.040;-1.594;2024-01-15T04:02:09;100592.47;;;7.86;79.86
46211;BME280;52144;48.040;-1.594;2024-01-15T04:04:40;100593.97;;;7.93;80.17
46211;BME280;52144;48.040;-1.594;2024-01-15T04:07:10;100589.63;;;7.91;80.03
46211;BME280;52144;48.040;-1.594;2024-01-15T04:09:38;100586.00;;;7.93;79.77
46211;BME280;52144;48.040;-1.594;2024-01-15T04:12:06;100586.28;;;7.86;78.90
46211;BME280;52144;48.040;-1.594;2024-01-15T04:14:34;100581.06;;;7.84;79.58
46211;BME280;52144;48.040;-1.594;2024-01-15T04:17:01;100574.72;;;7.88;79.96
46211;BME280;52144;48.040;-1.594;2024-01-15T04:19:29;100587.13;;;7.88;79.61
46211;BME280;52144;48.040;-1.594;2024-01-15T04:21:57;100578.03;;;7.93;80.24
46211;BME280;52144;48.040;-1.594;2024-01-15T04:24:26;100575.97;;;8.01;80.90
46211;BME280;52144;48.040;-1.594;2024-01-15T04:26:54;100581.03;;;8.08;80.89
46211;BME280;52144;48.040;-1.594;2024-01-15T04:29:22;100583.31;;;8.18;81.52
46211;BME280;52144;48.040;-1.594;2024-01-15T04:31:49;100574.00;;;8.30;82.52
46211;BME280;52144;48.040;-1.594;2024-01-15T04:34:17;100571.69;;;8.21;80.29
46211;BME280;52144;48.040;-1.594;2024-01-15T04:36:45;100563.88;;;7.94;79.93
46211;BME280;52144;48.040;-1.594;2024-01-15T04:39:13;100559.13;;;7.79;80.30
46211;BME280;52144;48.040;-1.594;2024-01-15T04:41:42;100548.91;;;7.68;79.84
46211;BME280;52144;48.040;-1.594;2024-01-15T04:44:10;100546.06;;;7.49;79.37
46211;BME280;52144;48.040;-1.594;2024-01-15T04:46:38;100549.63;;;7.48;80.74
46211;BME280;52144;48.040;-1.594;2024-01-15T04:49:05;100543.06;;;7.58;81.13
46211;BME280;52144;48.040;-1.594;2024-01-15T04:51:34;100543.19;;;7.55;84.07
46211;BME280;52144;48.040;-1.594;2024-01-15T04:54:02;100540.59;;;7.54;85.67
46211;BME280;52144;48.040;-1.594;2024-01-15T04:56:30;100542.97;;;7.85;85.01
46211;BME280;52144;48.040;-1.594;2024-01-15T04:58:59;100551.41;;;7.96;83.38
46211;BME280;52144;48.040;-1.594;2024-01-15T05:01:30;100570.22;;;7.90;82.86
46211;BME280;52144;48.040;-1.594;2024-01-15T05:03:58;100568.59;;;7.86;83.56
46211;BME280;52144;48.040;-1.594;2024-01-15T05:06:26;100572.72;;;7.93;82.76
46211;BME280;52144;48.040;-1.594;2024-01-15T05:08:54;100565.47;;;7.98;83.28
46211;BME280;52144;48.040;-1.594;2024-01-15T05:11:22;100560.72;;;7.83;85.15
46211;BME280;52144;48.040;-1.594;2024-01-15T05:13:49;100559.56;;;7.67;86.49
46211;BME280;52144;48.040;-1.594;2024-01-15T05:16:18;100561.91;;;7.76;84.16
46211;BME280;52144;48.040;-1.594;2024-01-15T05:18:46;100556.59;;;7.76;84.05
46211;BME280;52144;48.040;-1.594;2024-01-15T05:21:14;100551.50;;;7.70;82.69
46211;BME280;52144;48.040;-1.594;2024-01-15T05:23:42;100551.03;;;7.58;82.27
46211;BME280;52144;48.040;-1.594;2024-01-15T05:26:10;100549.22;;;7.59;81.58
46211;BME280;52144;48.040;-1.594;2024-01-15T05:28:38;100550.69;;;7.68;83.45
46211;BME280;52144;48.040;-1.594;2024-01-15T05:31:05;100545.78;;;7.57;83.22
46211;BME280;52144;48.040;-1.594;2024-01-15T05:33:35;100548.47;;;7.80;85.10
46211;BME280;52144;48.040;-1.594;2024-01-15T05:36:03;100554.63;;;8.04;84.16
46211;BME280;52144;48.040;-1.594;2024-01-15T05:38:31;100542.03;;;8.10;84.21
46211;BME280;52144;48.040;-1.594;2024-01-15T05:40:59;100542.28;;;8.03;81.61
46211;BME280;52144;48.040;-1.594;2024-01-15T05:43:27;100549.66;;;7.95;82.27
46211;BME280;52144;48.040;-1.594;2024-01-15T05:45:54;100541.31;;;8.06;82.57
46211;BME280;52144;48.040;-1.594;2024-01-15T05:48:22;100548.47;;;8.04;81.45
46211;BME280;52144;48.040;-1.594;2024-01-15T05:50:51;100555.41;;;8.08;83.31
46211;BME280;52144;48.040;-1.594;2024-01-15T05:53:19;100551.13;;;8.26;84.37
46211;BME280;52144;48.040;-1.594;2024-01-15T05:55:47;100542.78;;;8.37;83.55
46211;BME280;52144;48.040;-1.594;2024-01-15T05:58:15;100535.06;;;8.31;82.09
46211;BME280;52144;48.040;-1.594;2024-01-15T06:00:42;100525.03;;;8.15;81.02
46211;BME280;52144;48.040;-1.594;2024-01-15T06:03:10;100518.19;;;7.86;79.34
46211;BME280;52144;48.040;-1.594;2024-01-15T06:05:38;100514.97;;;7.78;79.71
46211;BME280;52144;48.040;-1.594;2024-01-15T06:08:07;100514.97;;;7.78;80.41
46211;BME280;52144;48.040;-1.594;2024-01-15T06:10:35;100516.50;;;7.83;80.57
46211;BME280;52144;48.040;-1.594;2024-01-15T06:13:03;100528.91;;;7.83;79.62
46211;BME280;52144;48.040;-1.594;2024-01-15T06:15:31;100523.72;;;7.80;79.09
46211;BME280;52144;48.040;-1.594;2024-01-15T06:17:59;100524.97;;;7.93;81.26
46211;BME280;52144;48.040;-1.594;2024-01-15T06:20:27;100524.47;;;8.07;81.79
46211;BME280;52144;48.040;-1.594;2024-01-15T06:22:54;100529.34;;;8.18;81.77
46211;BME280;52144;48.040;-1.594;2024-01-15T06:25:23;100534.41;;;8.24;81.92
46211;BME280;52144;48.040;-1.594;2024-01-15T06:27:51;100535.78;;;8.12;83.54
46211;BME280;52144;48.040;-1.594;2024-01-15T06:30:19;100532.56;;;8.26;83.15
46211;BME280;52144;48.040;-1.594;2024-01-15T06:32:47;100536.47;;;8.39;82.96
46211;BME280;52144;48.040;-1.594;2024-01-15T06:35:15;100546.88;;;8.46;82.43
46211;BME280;52144;48.040;-1.594;2024-01-15T06:37:46;100542.47;;;8.44;82.73
46211;BME280;52144;48.040;-1.594;2024-01-15T06:40:14;100539.56;;;8.29;80.73
46211;BME280;52144;48.040;-1.594;2024-01-15T06:42:43;100544.66;;;8.11;81.46
46211;BME280;52144;48.040;-1.594;2024-01-15T06:45:11;100534.56;;;7.97;79.18
46211;BME280;52144;48.040;-1.594;2024-01-15T06:47:38;100530.75;;;7.81;79.93
46211;BME280;52144;48.040;-1.594;2024-01-15T06:50:07;100531.41;;;7.88;79.81
46211;BME280;52144;48.040;-1.594;2024-01-15T06:52:34;100530.75;;;7.81;79.21
46211;BME280;52144;48.040;-1.594;2024-01-15T06:55:03;100533.22;;;7.86;79.80
46211;BME280;52144;48.040;-1.594;2024-01-15T06:57:32;100536.41;;;7.95;79.91
46211;BME280;52144;48.040;-1.594;2024-01-15T07:00:01;100535.50;;;7.96;79.37
46211;BME280;52144;48.040;-1.594;2024-01-15T07:02:34;100538.81;;;8.01;79.50
46211;BME280;52144;48.040;-1.594;2024-01-15T07:05:02;100537.97;;;8.01;79.07
46211;BME280;52144;48.040;-1.594;2024-01-15T07:07:31;100553.03;;;8.00;79.39
46211;BME280;52144;48.040;-1.594;2024-01-15T07:09:59;100554.13;;;7.95;78.85
46211;BME280;52144;48.040;-1.594;2024-01-15T07:12:27;100557.47;;;8.00;80.99
46211;BME280;52144;48.040;-1.594;2024-01-15T07:14:56;100552.31;;;8.19;82.40
46211;BME280;52144;48.040;-1.594;2024-01-15T07:17:25;100564.41;;;8.26;82.25
46211;BME280;52144;48.040;-1.594;2024-01-15T07:19:52;100567.53;;;8.37;82.90
46211;BME280;52144;48.040;-1.594;2024-01-15T07:22:20;100561.47;;;8.34;81.07
46211;BME280;52144;48.040;-1.594;2024-01-15T07:24:48;100564.88;;;8.14;78.83
46211;BME280;52144;48.040;-1.594;2024-01-15T07:27:16;100560.34;;;7.94;78.78
46211;BME280;52144;48.040;-1.594;2024-01-15T07:29:44;100563.28;;;7.86;80.11
46211;BME280;52144;48.040;-1.594;2024-01-15T07:32:12;100561.59;;;7.83;79.28
46211;BME280;52144;48.040;-1.594;2024-01-15T07:34:41;100555.56;;;7.80;79.83
46211;BME280;52144;48.040;-1.594;2024-01-15T07:37:09;100557.84;;;7.89;79.64
46211;BME280;52144;48.040;-1.594;2024-01-15T07:39:36;100553.22;;;7.96;79.60
46211;BME280;52144;48.040;-1.594;2024-01-15T07:42:05;100560.84;;;8.03;81.45
46211;BME280;52144;48.040;-1.594;2024-01-15T07:44:33;100558.09;;;8.07;79.49
46211;BME280;52144;48.040;-1.594;2024-01-15T07:47:01;100558.72;;;8.13;80.35
46211;BME280;52144;48.040;-1.594;2024-01-15T07:49:30;100561.38;;;8.13;79.77
46211;BME280;52144;48.040;-1.594;2024-01-15T07:51:59;100559.56;;;8.14;81.22
46211;BME280;52144;48.040;-1.594;2024-01-15T07:54:27;100560.28;;;8.19;81.06
46211;BME280;52144;48.040;-1.594;2024-01-15T07:56:56;100562.56;;;8.28;82.05
46211;BME280;52144;48.040;-1.594;2024-01-15T07:59:25;100560.25;;;8.42;82.24
46211;BME280;52144;48.040;-1.594;2024-01-15T08:01:53;100565.66;;;8.41;80.92
46211;BME280;52144;48.040;-1.594;2024-01-15T08:04:21;100565.69;;;8.39;80.20
46211;BME280;52144;48.040;-1.594;2024-01-15T08:06:49;100560.84;;;8.27;79.42
46211;BME280;52144;48.040;-1.594;2024-01-15T08:09:18;100555.53;;;8.03;76.95
46211;BME280;52144;48.040;-1.594;2024-01-15T08:11:46;100558.75;;;7.90;78.08
46211;BME280;52144;48.040;-1.594;2024-01-15T08:14:15;100555.34;;;7.86;78.46
46211;BME280;52144;48.040;-1.594;2024-01-15T08:16:43;100551.41;;;7.96;80.84
46211;BME280;52144;48.040;-1.594;2024-01-15T08:19:11;100564.06;;;8.12;80.87
46211;BME280;52144;48.040;-1.594;2024-01-15T08:21:39;100570.84;;;8.20;80.01
46211;BME280;52144;48.040;-1.594;2024-01-15T08:24:07;100574.94;;;8.29;81.27
46211;BME280;52144;48.040;-1.594;2024-01-15T08:26:37;100580.09;;;8.10;82.47
46211;BME280;52144;48.040;-1.594;2024-01-15T08:29:05;100580.25;;;7.82;85.56
46211;BME280;52144;48.040;-1.594;2024-01-15T08:31:32;100580.25;;;7.82;87.41
46211;BME280;52144;48.040;-1.594;2024-01-15T08:34:01;100591.63;;;7.60;88.14
46211;BME280;52144;48.040;-1.594;2024-01-15T08:36:29;100585.69;;;7.77;88.48
46211;BME280;52144;48.040;-1.594;2024-01-15T08:38:57;100597.34;;;7.73;89.32
46211;BME280;52144;48.040;-1.594;2024-01-15T08:41:25;100597.91;;;7.81;89.10
46211;BME280;52144;48.040;-1.594;2024-01-15T08:43:54;100601.53;;;8.28;86.71
46211;BME280;52144;48.040;-1.594;2024-01-15T08:46:21;100606.34;;;8.41;85.32
46211;BME280;52144;48.040;-1.594;2024-01-15T08:48:50;100607.41;;;8.36;82.08
46211;BME280;52144;48.040;-1.594;2024-01-15T08:51:18;100602.34;;;8.30;83.68
46211;BME280;52144;48.040;-1.594;2024-01-15T08:53:46;100605.97;;;8.27;83.15
46211;BME280;52144;48.040;-1.594;2024-01-15T08:56:14;100609.50;;;8.28;82.40
46211;BME280;52144;48.040;-1.594;2024-01-15T08:58:42;100617.16;;;8.35;84.45
46211;BME280;52144;48.040;-1.594;2024-01-15T09:01:11;100617.34;;;8.31;83.98
46211;BME280;52144;48.040;-1.594;2024-01-15T09:03:39;100618.78;;;8.39;85.55
46211;BME280;52144;48.040;-1.594;2024-01-15T09:06:08;100616.09;;;8.41;83.71
46211;BME280;52144;48.040;-1.594;2024-01-15T09:08:36;100620.25;;;8.48;83.98
46211;BME280;52144;48.040;-1.594;2024-01-15T09:11:04;100625.75;;;8.43;84.24
46211;BME280;52144;48.040;-1.594;2024-01-15T09:13:32;100624.19;;;8.36;85.42
46211;BME280;52144;48.040;-1.594;2024-01-15T09:16:00;100624.44;;;8.30;85.64
46211;BME280;52144;48.040;-1.594;2024-01-15T09:18:30;100625.75;;;8.43;86.77
46211;BME280;52144;48.040;-1.594;2024-01-15T09:20:58;100628.63;;;8.61;86.61
46211;BME280;52144;48.040;-1.594;2024-01-15T09:23:26;100633.03;;;8.13;86.78
46211;BME280;52144;48.040;-1.594;2024-01-15T09:25:55;100634.97;;;8.57;85.66
46211;BME280;52144;48.040;-1.594;2024-01-15T09:28:23;100634.59;;;8.66;83.91
46211;BME280;52144;48.040;-1.594;2024-01-15T09:30:50;100647.03;;;8.66;81.76
46211;BME280;52144;48.040;-1.594;2024-01-15T09:33:18;100647.31;;;8.58;84.50
46211;BME280;52144;48.040;-1.594;2024-01-15T09:35:47;100647.84;;;8.44;79.85
46211;BME280;52144;48.040;-1.594;2024-01-15T09:38:15;100644.75;;;8.31;80.29
46211;BME280;52144;48.040;-1.594;2024-01-15T09:40:45;100650.72;;;8.14;85.41
46211;BME280;52144;48.040;-1.594;2024-01-15T09:43:14;100653.56;;;8.57;83.93
46211;BME280;52144;48.040;-1.594;2024-01-15T09:45:42;100649.34;;;8.26;86.08
46211;BME280;52144;48.040;-1.594;2024-01-15T09:48:11;100654.91;;;8.20;86.32
46211;BME280;52144;48.040;-1.594;2024-01-15T09:50:39;100649.63;;;7.95;88.04
46211;BME280;52144;48.040;-1.594;2024-01-15T09:53:08;100647.50;;;8.28;89.25
46211;BME280;52144;48.040;-1.594;2024-01-15T09:55:37;100650.53;;;8.42;87.68
46211;BME280;52144;48.040;-1.594;2024-01-15T09:58:05;100656.13;;;8.35;87.45
46211;BME280;52144;48.040;-1.594;2024-01-15T10:00:33;100646.34;;;8.12;87.51
46211;BME280;52144;48.040;-1.594;2024-01-15T10:03:04;100661.31;;;7.89;87.32
46211;BME280;52144;48.040;-1.594;2024-01-15T10:05:33;100661.72;;;8.27;88.89
46211;BME280;52144;48.040;-1.594;2024-01-15T10:08:01;100668.75;;;8.04;88.65
46211;BME280;52144;48.040;-1.594;2024-01-15T10:10:31;100663.56;;;8.25;87.78
46211;BME280;52144;48.040;-1.594;2024-01-15T10:12:59;100666.84;;;8.79;87.34
46211;BME280;52144;48.040;-1.594;2024-01-15T10:15:27;100670.50;;;8.76;86.37
46211;BME280;52144;48.040;-1.594;2024-01-15T10:17:55;100675.06;;;8.73;85.06
46211;BME280;52144;48.040;-1.594;2024-01-15T10:20:23;100673.97;;;8.78;83.17
46211;BME280;52144;48.040;-1.594;2024-01-15T10:22:51;100677.00;;;9.13;82.82
46211;BME280;52144;48.040;-1.594;2024-01-15T10:25:19;100678.16;;;8.62;83.15
46211;BME280;52144;48.040;-1.594;2024-01-15T10:28:01;100682.41;;;8.90;80.86
46211;BME280;52144;48.040;-1.594;2024-01-15T10:30:29;100682.47;;;8.64;80.79
46211;BME280;52144;48.040;-1.594;2024-01-15T10:32:58;100689.84;;;8.80;81.42
46211;BME280;52144;48.040;-1.594;2024-01-15T10:35:29;100689.72;;;8.83;80.42
46211;BME280;52144;48.040;-1.594;2024-01-15T10:37:58;100696.44;;;8.70;81.27
46211;BME280;52144;48.040;-1.594;2024-01-15T10:40:26;100693.91;;;9.12;80.74
46211;BME280;52144;48.040;-1.594;2024-01-15T10:42:53;100697.22;;;9.17;78.69
46211;BME280;52144;48.040;-1.594;2024-01-15T10:45:23;100698.09;;;8.96;77.89
46211;BME280;52144;48.040;-1.594;2024-01-15T10:47:51;100698.22;;;9.15;79.37
46211;BME280;52144;48.040;-1.594;2024-01-15T10:50:21;100696.63;;;9.33;77.54
46211;BME280;52144;48.040;-1.594;2024-01-15T10:52:49;100705.59;;;9.08;78.01
46211;BME280;52144;48.040;-1.594;2024-01-15T10:55:18;100693.81;;;9.36;74.95
46211;BME280;52144;48.040;-1.594;2024-01-15T10:57:48;100698.91;;;9.62;74.66
46211;BME280;52144;48.040;-1.594;2024-01-15T11:00:17;100706.56;;;9.28;74.58
46211;BME280;52144;48.040;-1.594;2024-01-15T11:02:47;100708.81;;;9.16;73.56
46211;BME280;52144;48.040;-1.594;2024-01-15T11:05:15;100703.41;;;9.18;72.52
46211;BME280;52144;48.040;-1.594;2024-01-15T11:07:44;100701.94;;;9.33;72.92
46211;BME280;52144;48.040;-1.594;2024-01-15T11:10:40;100690.22;;;9.79;71.90
46211;BME280;52144;48.040;-1.594;2024-01-15T11:13:10;100702.22;;;10.31;70.57
46211;BME280;52144;48.040;-1.594;2024-01-15T11:16:00;100691.13;;;10.19;69.69
46211;BME280;52144;48.040;-1.594;2024-01-15T11:18:31;100703.22;;;10.08;70.06
46211;BME280;52144;48.040;-1.594;2024-01-15T11:21:20;100691.34;;;10.15;67.81
46211;BME280;52144;48.040;-1.594;2024-01-15T11:23:51;100703.66;;;9.97;64.95
46211;BME280;52144;48.040;-1.594;2024-01-15T11:26:31;100710.34;;;9.64;64.22
46211;BME280;52144;48.040;-1.594;2024-01-15T11:29:00;100710.28;;;9.66;63.31
46211;BME280;52144;48.040;-1.594;2024-01-15T11:31:56;100703.06;;;9.70;63.44
46211;BME280;52144;48.040;-1.594;2024-01-15T11:34:19;100704.66;;;9.74;62.38
46211;BME280;52144;48.040;-1.594;2024-01-15T11:37:01;100705.50;;;9.74;61.94
46211;BME280;52144;48.040;-1.594;2024-01-15T11:39:41;100707.00;;;10.02;62.85
46211;BME280;52144;48.040;-1.594;2024-01-15T11:42:14;100704.97;;;10.07;61.14
46211;BME280;52144;48.040;-1.594;2024-01-15T11:44:42;100705.22;;;10.21;60.85
46211;BME280;52144;48.040;-1.594;2024-01-15T11:47:11;100709.88;;;9.97;60.23
46211;BME280;52144;48.040;-1.594;2024-01-15T11:50:03;100699.47;;;10.32;60.99
46211;BME280;52144;48.040;-1.594;2024-01-15T11:52:34;100703.78;;;10.14;59.35
46211;BME280;52144;48.040;-1.594;2024-01-15T11:55:10;100694.94;;;10.34;61.46
46211;BME280;52144;48.040;-1.594;2024-01-15T11:57:43;100694.47;;;10.64;61.75
46211;BME280;52144;48.040;-1.594;2024-01-15T12:00:13;100701.19;;;10.13;60.71
46211;BME280;52144;48.040;-1.594;2024-01-15T12:02:42;100687.53;;;10.41;59.42
46211;BME280;52144;48.040;-1.594;2024-01-15T12:05:13;100698.06;;;10.63;60.57
46211;BME280;52144;48.040;-1.594;2024-01-15T12:07:42;100700.19;;;9.95;59.98
46211;BME280;52144;48.040;-1.594;2024-01-15T12:10:10;100698.94;;;10.03;59.26
46211;BME280;52144;48.040;-1.594;2024-01-15T12:12:50;100696.19;;;9.84;59.27
46211;BME280;52144;48.040;-1.594;2024-01-15T12:15:22;100692.34;;;9.92;59.53
46211;BME280;52144;48.040;-1.594;2024-01-15T12:17:50;100689.69;;;10.12;59.17
46211;BME280;52144;48.040;-1.594;2024-01-15T12:20:19;100685.50;;;10.07;58.59
46211;BME280;52144;48.040;-1.594;2024-01-15T12:22:47;100688.56;;;10.38;58.79
46211;BME280;52144;48.040;-1.594;2024-01-15T12:25:27;100692.69;;;9.84;56.45
46211;BME280;52144;48.040;-1.594;2024-01-15T12:27:56;100693.34;;;10.30;54.33
46211;BME280;52144;48.040;-1.594;2024-01-15T12:30:25;100698.47;;;10.35;55.95
46211;BME280;52144;48.040;-1.594;2024-01-15T12:32:54;100693.63;;;10.03;55.51
46211;BME280;52144;48.040;-1.594;2024-01-15T12:35:24;100693.53;;;10.05;56.41
46211;BME280;52144;48.040;-1.594;2024-01-15T12:37:54;100687.88;;;10.13;54.48
46211;BME280;52144;48.040;-1.594;2024-01-15T12:40:22;100682.97;;;10.03;56.22
46211;BME280;52144;48.040;-1.594;2024-01-15T12:42:49;100681.44;;;9.77;56.42
46211;BME280;52144;48.040;-1.594;2024-01-15T12:45:17;100685.22;;;9.72;56.27
46211;BME280;52144;48.040;-1.594;2024-01-15T12:47:45;100681.91;;;10.08;56.80
46211;BME280;52144;48.040;-1.594;2024-01-15T12:50:14;100679.78;;;9.95;57.49
46211;BME280;52144;48.040;-1.594;2024-01-15T12:52:47;100679.75;;;9.75;56.41
46211;BME280;52144;48.040;-1.594;2024-01-15T12:55:15;100657.88;;;9.89;56.52
46211;BME280;52144;48.040;-1.594;2024-01-15T12:57:43;100675.13;;;9.80;56.45
46211;BME280;52144;48.040;-1.594;2024-01-15T13:00:12;100673.50;;;9.96;56.04